PAKP

Details ICAO PAKP (AKP)
Name ANAKTUVUK PASS
Region USA (Alaska)
Timezone America/Anchorage (UTC-8.0)
Plans Departing 7
Arriving 10
Stats Elevation 2,103 ft / 641 m (AMSL)
Location 68.133599° -151.743340°
Runways 1
Magnetic Variation 16.275° E
Sunrise 2018-05-24 10:37:59 UTC / 2018-05-24 02:37:59 Local
Sunset 2018-05-25 09:32:35 UTC / 2018-05-25 01:32:35 Local
Advertisement - Login to hide

Runways

ID Width Length Bearing (true) Bearing (mag) Surface Threshold Offset Overrun Length
01 100 ft / 30 m 4,785 ft / 1,458 m 38.32° 22.05° Gravel 0 ft / 0 m 600 ft / 183 m
19 100 ft / 30 m 4,785 ft / 1,458 m 218.34° 202.07° Gravel 0 ft / 0 m 275 ft / 84 m

Map

Weather


0- 5 10 15 20 25 30 35+ Temperature / ° C

Clouds and Precipitation
Forecast for 2018-05-25 06:00 UTC. Updated 6 minutes ago

Ground ~20,000 ft ~40,000 ft Winds

METAR

PAKP 250456Z AUTO 04012KT 10SM OVC048 08/02 A2967 RMK AO2 SLP076 T00780022

TAF

Not found

Frequencies

Recorded 135.75 MHz AWOS 3
Unicom 122.80 MHz CTAF
Warning: Do not use this data for real-world aviation or navigation. No guarantee of current accuracy is given.